Time;durP1;ratioP1;P1;durP2;ratioP2;P2;SDS_P1;SDS_P2;PMS_P1;PMS_P2;Temp;Humidity;BMP_temperature;BMP_pressure;BME280_temperature;BME280_humidity;BME280_pressure;Samples;Min_cycle;Max_cycle;Signal;HPM_P1;HPM_P2
2021/10/14 00:01:41;;;;;;;7.18;3.70;;;5.30;73.60;;;4.38;60.61;95631.34;5031101;28;20618;-79
2021/10/14 00:04:08;;;;;;;5.45;4.22;;;5.30;73.60;;;4.39;60.79;95625.19;5030759;28;20310;-79
2021/10/14 00:06:36;;;;;;;5.53;4.10;;;5.30;73.60;;;4.37;60.80;95626.28;5015299;28;20698;-79
2021/10/14 00:09:03;;;;;;;5.88;4.20;;;5.30;73.60;;;4.36;60.91;95628.06;5032310;28;20271;-79
2021/10/14 00:11:30;;;;;;;5.70;3.92;;;5.20;73.50;;;4.32;60.83;95630.09;5036023;28;20270;-79
2021/10/14 00:13:58;;;;;;;4.40;3.33;;;5.30;73.50;;;4.31;60.56;95628.47;5047603;28;20220;-79
2021/10/14 00:16:25;;;;;;;5.40;3.78;;;5.20;73.40;;;4.30;60.61;95636.41;5034098;28;20631;-79
2021/10/14 00:18:52;;;;;;;5.85;4.18;;;5.20;73.40;;;4.24;60.61;95631.75;5032289;28;20658;-79
2021/10/14 00:21:19;;;;;;;4.63;3.83;;;5.20;73.40;;;4.23;60.63;95630.09;5034576;28;20681;-79
2021/10/14 00:23:46;;;;;;;5.13;4.00;;;5.20;73.50;;;4.21;60.72;95638.03;5034263;28;20223;-80
2021/10/14 00:26:13;;;;;;;5.05;3.65;;;5.20;73.50;;;4.18;60.29;95629.69;5033883;28;20246;-79
2021/10/14 00:28:41;;;;;;;4.13;3.65;;;5.10;73.40;;;4.14;60.48;95629.13;5030443;28;20235;-80
2021/10/14 00:31:08;;;;;;;5.65;3.70;;;5.10;73.30;;;4.12;60.65;95625.84;5014427;28;20320;-79
2021/10/14 00:33:35;;;;;;;3.35;3.00;;;5.10;73.30;;;4.06;60.31;95628.97;5031900;28;20642;-79
2021/10/14 00:36:03;;;;;;;4.47;3.78;;;5.10;73.30;;;4.04;60.63;95628.28;5041370;28;20247;-80
2021/10/14 00:38:31;;;;;;;4.65;3.75;;;5.00;73.30;;;4.01;61.31;95622.38;5038520;28;20257;-79
2021/10/14 00:40:59;;;;;;;4.85;3.58;;;5.00;73.50;;;4.02;60.63;95623.22;5021706;28;20674;-79
2021/10/14 00:43:26;;;;;;;4.38;3.35;;;5.00;73.50;;;4.00;60.73;95614.75;5054164;28;20188;-78
2021/10/14 00:45:54;;;;;;;3.92;3.33;;;5.00;73.60;;;4.03;61.11;95630.06;5037743;28;20228;-79
2021/10/14 00:48:22;;;;;;;3.72;3.13;;;4.90;73.50;;;4.00;61.07;95619.94;5037193;28;20280;-79
2021/10/14 00:50:49;;;;;;;4.90;3.10;;;5.00;73.60;;;4.02;61.02;95620.63;5054273;28;20246;-79
2021/10/14 00:53:16;;;;;;;3.15;2.85;;;4.90;73.60;;;4.01;60.92;95617.19;5020861;28;20192;-79
2021/10/14 00:55:44;;;;;;;3.47;2.92;;;5.00;73.60;;;4.01;60.79;95618.97;5037821;28;20228;-79
2021/10/14 00:58:11;;;;;;;3.28;2.90;;;4.90;73.60;;;4.00;60.84;95612.97;5070964;28;20200;-79
2021/10/14 01:00:38;;;;;;;3.00;2.70;;;4.90;73.70;;;4.02;60.58;95610.25;5054240;28;20200;-80
2021/10/14 01:03:06;;;;;;;4.15;2.83;;;4.90;73.70;;;4.02;61.10;95618.03;5069959;28;20207;-79
2021/10/14 01:05:34;;;;;;;3.53;2.78;;;4.90;73.70;;;4.05;60.88;95616.94;5053973;28;20232;-79
2021/10/14 01:08:01;;;;;;;3.53;2.90;;;4.90;73.70;;;4.05;60.93;95615.16;5038068;28;20199;-79
2021/10/14 01:10:29;;;;;;;3.45;2.70;;;4.90;73.80;;;4.05;61.08;95606.56;5086733;28;20292;-79
2021/10/14 01:12:59;;;;;;;3.90;2.65;;;4.90;73.80;;;4.05;60.65;95612.56;5033879;28;20263;-79
2021/10/14 01:15:27;;;;;;;4.13;2.50;;;4.90;73.80;;;4.03;61.06;95611.06;5034429;28;20223;-79
2021/10/14 01:17:56;;;;;;;2.67;2.45;;;4.90;73.70;;;4.02;60.90;95607.66;5034185;28;20774;-80
2021/10/14 01:20:25;;;;;;;3.88;3.08;;;4.90;73.70;;;4.03;60.68;95604.09;5036418;28;20537;-79
2021/10/14 01:22:52;;;;;;;2.75;2.45;;;4.90;73.70;;;4.00;60.40;95605.19;5037356;28;20253;-79
2021/10/14 01:25:19;;;;;;;3.33;3.00;;;4.90;73.60;;;4.01;60.37;95606.00;5053829;28;20228;-79
2021/10/14 01:27:48;;;;;;;3.35;2.67;;;4.90;73.60;;;3.99;60.70;95605.31;5036688;28;20312;-79
2021/10/14 01:30:17;;;;;;;3.53;2.50;;;4.90;73.80;;;3.98;60.57;95601.91;5020545;28;20200;-79
2021/10/14 01:32:47;;;;;;;3.00;2.70;;;4.90;73.70;;;3.98;60.57;95601.09;5037252;28;20769;-79
2021/10/14 01:35:18;;;;;;;3.42;2.60;;;4.90;74.60;;;3.98;60.68;95603.69;5085304;28;20288;-79
2021/10/14 01:37:46;;;;;;;3.38;2.60;;;4.90;73.70;;;3.99;61.07;95597.53;5017906;28;20653;-79
2021/10/14 01:40:14;;;;;;;3.33;2.78;;;4.90;73.80;;;4.00;61.13;95600.00;5081078;28;20200;-79
2021/10/14 01:42:41;;;;;;;2.58;2.20;;;4.90;73.80;;;4.01;60.70;95590.44;5053406;28;20222;-79
2021/10/14 01:45:09;;;;;;;2.65;2.40;;;4.90;74.80;;;4.03;60.62;95592.88;5048987;28;20209;-79
2021/10/14 01:47:36;;;;;;;3.30;2.90;;;4.90;73.90;;;4.03;60.55;95587.69;5033546;28;20239;-79
2021/10/14 01:50:06;;;;;;;3.85;2.50;;;4.90;73.90;;;4.04;60.81;95591.94;5036197;28;20287;-79
2021/10/14 01:52:33;;;;;;;3.38;2.55;;;4.90;74.00;;;4.05;60.98;95590.97;5036432;28;20294;-79
2021/10/14 01:55:01;;;;;;;3.88;2.85;;;4.90;73.90;;;4.06;61.15;95584.84;5050142;28;20239;-79
2021/10/14 01:57:28;;;;;;;3.28;2.70;;;4.90;74.00;;;4.08;61.17;95582.94;5016841;28;20271;-80
2021/10/14 01:59:55;;;;;;;3.35;2.72;;;4.90;74.00;;;4.08;61.34;95591.53;5033387;28;20657;-79
2021/10/14 02:02:22;;;;;;;3.40;2.55;;;4.90;74.00;;;4.09;61.09;95595.78;5053137;28;20598;-79
2021/10/14 02:04:50;;;;;;;4.07;2.60;;;4.90;74.00;;;4.07;61.67;95587.28;5036694;28;20219;-79
2021/10/14 02:07:17;;;;;;;3.92;2.97;;;5.00;74.20;;;4.11;61.15;95586.09;5036245;28;20672;-78
2021/10/14 02:09:44;;;;;;;3.88;2.70;;;5.00;74.20;;;4.11;61.31;95593.03;5044907;28;20196;-79
2021/10/14 02:12:11;;;;;;;3.05;2.50;;;5.00;74.10;;;4.11;61.16;95593.88;5036409;28;20299;-79
2021/10/14 02:14:38;;;;;;;4.53;2.80;;;5.00;74.00;;;4.10;60.96;95594.81;5053031;28;20208;-79
2021/10/14 02:17:06;;;;;;;3.00;2.67;;;5.00;74.00;;;4.09;61.47;95600.13;5036214;28;20757;-79
2021/10/14 02:19:33;;;;;;;4.55;2.42;;;5.00;74.10;;;4.09;61.22;95600.97;5052307;28;20208;-80
2021/10/14 02:22:00;;;;;;;2.90;2.60;;;4.90;74.00;;;4.10;61.45;95600.03;5036317;28;20323;-79
2021/10/14 02:24:27;;;;;;;3.17;2.65;;;5.00;74.10;;;4.09;61.57;95593.19;5052823;28;20329;-79
2021/10/14 02:26:54;;;;;;;4.10;2.80;;;5.00;74.20;;;4.12;61.30;95603.28;5051881;28;20228;-79
2021/10/14 02:29:22;;;;;;;4.07;2.75;;;5.00;74.20;;;4.08;61.69;95606.31;5052753;28;20728;-79
2021/10/14 02:31:49;;;;;;;2.80;2.42;;;5.00;74.20;;;4.12;61.66;95605.06;5036261;28;20212;-79
2021/10/14 02:34:16;;;;;;;3.80;2.72;;;5.00;74.20;;;4.09;61.24;95594.94;5032357;28;20330;-79
2021/10/14 02:36:43;;;;;;;3.22;2.67;;;5.00;74.20;;;4.11;61.24;95613.81;5036778;28;20212;-79
2021/10/14 02:39:10;;;;;;;3.10;2.50;;;5.00;74.10;;;4.10;61.48;95605.22;5052742;28;20254;-79
2021/10/14 02:41:38;;;;;;;3.38;2.67;;;5.00;74.10;;;4.07;60.97;95604.66;5035649;28;20228;-79
2021/10/14 02:44:05;;;;;;;2.78;2.30;;;5.00;74.10;;;4.04;61.14;95600.56;5051755;28;20199;-78
2021/10/14 02:46:32;;;;;;;4.15;2.83;;;5.00;74.00;;;4.02;60.73;95607.66;5034558;28;20646;-79
2021/10/14 02:48:59;;;;;;;2.92;2.40;;;5.00;74.00;;;4.05;61.27;95604.78;5053968;28;20188;-79
2021/10/14 02:51:27;;;;;;;2.95;2.47;;;4.90;74.10;;;4.04;61.29;95599.72;5035668;28;20265;-79
2021/10/14 02:53:54;;;;;;;2.60;2.40;;;4.90;74.10;;;4.08;60.98;95601.13;5053630;28;20200;-79
2021/10/14 02:56:21;;;;;;;2.40;2.20;;;4.90;74.20;;;4.03;60.98;95596.31;5066606;28;20236;-79
2021/10/14 02:58:48;;;;;;;4.32;2.70;;;4.90;74.10;;;4.09;60.99;95600.13;5035117;28;20227;-80
2021/10/14 03:01:16;;;;;;;2.53;2.10;;;4.90;75.10;;;4.13;61.45;95597.13;5052035;28;20207;-79
2021/10/14 03:03:46;;;;;;;2.60;2.20;;;4.90;74.30;;;4.15;61.37;95607.38;5035049;28;20207;-79
2021/10/14 03:06:13;;;;;;;2.70;2.22;;;5.00;74.40;;;4.17;61.22;95600.28;5034972;28;20228;-79
2021/10/14 03:08:40;;;;;;;3.33;2.40;;;5.00;74.40;;;4.21;61.14;95608.63;5068753;28;20638;-79
2021/10/14 03:11:09;;;;;;;3.05;2.60;;;5.00;74.40;;;4.23;61.59;95604.13;5018966;28;20226;-78
2021/10/14 03:13:36;;;;;;;2.97;2.47;;;5.00;74.30;;;4.23;61.56;95606.72;5035192;28;20250;-79
2021/10/14 03:16:04;;;;;;;3.00;2.40;;;5.00;74.30;;;4.24;61.31;95603.97;5050827;28;20307;-79
2021/10/14 03:18:33;;;;;;;3.45;2.58;;;5.10;74.40;;;4.23;61.20;95604.94;5051669;28;20207;-79
2021/10/14 03:21:01;;;;;;;3.22;2.60;;;5.10;74.40;;;4.25;61.88;95608.22;5034832;28;20216;-79
2021/10/14 03:23:28;;;;;;;2.83;2.15;;;5.10;74.40;;;4.26;61.82;95599.50;5034485;28;20270;-80
2021/10/14 03:25:55;;;;;;;5.75;2.85;;;5.10;74.40;;;4.30;61.64;95600.84;5051155;28;20319;-79
2021/10/14 03:28:22;;;;;;;2.55;2.10;;;5.10;74.50;;;4.34;61.74;95601.41;5051602;28;20212;-79
2021/10/14 03:30:49;;;;;;;3.00;2.45;;;5.10;74.50;;;4.39;61.22;95598.41;5051538;28;20184;-79
2021/10/14 03:33:17;;;;;;;2.40;2.10;;;5.10;74.50;;;4.36;61.25;95583.06;5047672;28;20206;-79
2021/10/14 03:35:44;;;;;;;2.65;2.30;;;5.20;74.50;;;4.44;61.40;95597.03;5052950;28;20204;-79
2021/10/14 03:38:12;;;;;;;3.08;2.50;;;5.20;74.60;;;4.46;61.34;95594.28;5019102;28;20196;-79
2021/10/14 03:40:39;;;;;;;3.13;2.50;;;5.20;74.60;;;4.50;61.32;95595.66;5034914;28;20710;-79
2021/10/14 03:43:07;;;;;;;4.93;2.60;;;5.30;74.60;;;4.49;61.41;95589.66;5047454;28;20200;-78
2021/10/14 03:45:35;;;;;;;4.60;2.22;;;5.30;74.60;;;4.55;61.84;95609.03;5064105;28;20227;-79
2021/10/14 03:48:03;;;;;;;2.55;2.33;;;5.30;74.50;;;4.56;61.57;95599.50;5064518;28;20609;-79
2021/10/14 03:50:30;;;;;;;3.13;2.35;;;5.30;74.50;;;4.57;61.48;95604.53;5064419;28;20189;-79
2021/10/14 03:52:57;;;;;;;4.80;2.28;;;5.40;74.60;;;4.56;61.29;95602.91;5031593;28;20413;-78
2021/10/14 03:55:25;;;;;;;2.90;2.40;;;5.40;74.60;;;4.59;61.32;95607.00;5030935;28;20203;-79
2021/10/14 03:57:52;;;;;;;2.47;2.22;;;5.40;74.50;;;4.53;61.34;95600.59;5031213;28;20216;-79
2021/10/14 04:00:20;;;;;;;2.17;1.88;;;5.40;74.40;;;4.58;61.01;95616.59;5031111;28;20657;-79
2021/10/14 04:02:47;;;;;;;2.85;2.00;;;5.40;74.40;;;4.57;60.83;95620.13;5047394;28;20305;-79
2021/10/14 04:05:15;;;;;;;3.00;2.00;;;5.40;74.40;;;4.56;60.97;95613.28;5033996;28;20239;-79
2021/10/14 04:07:42;;;;;;;2.75;2.50;;;5.40;74.20;;;4.55;61.02;95614.25;5018195;28;20689;-79
2021/10/14 04:10:11;;;;;;;3.35;2.15;;;5.40;74.30;;;4.53;60.91;95608.38;5014033;28;20188;-79
2021/10/14 04:12:38;;;;;;;2.55;2.00;;;5.40;74.20;;;4.51;60.89;95607.69;5031109;28;20737;-79
2021/10/14 04:15:06;;;;;;;2.45;2.25;;;5.40;74.20;;;4.49;60.90;95610.44;5044652;28;20210;-79
2021/10/14 04:17:34;;;;;;;2.50;2.30;;;5.40;74.30;;;4.48;60.93;95620.97;5018040;28;20227;-79
2021/10/14 04:20:01;;;;;;;2.78;2.10;;;5.30;74.20;;;4.46;60.77;95617.69;5066666;28;20669;-79
2021/10/14 04:22:29;;;;;;;2.60;2.17;;;5.30;74.20;;;4.44;60.86;95615.22;5034254;28;20258;-80
2021/10/14 04:24:56;;;;;;;2.65;2.25;;;5.30;74.20;;;4.42;60.84;95614.53;5029974;28;20231;-79
2021/10/14 04:27:24;;;;;;;2.95;2.25;;;5.30;74.20;;;4.41;60.98;95606.88;5031414;28;20248;-79
2021/10/14 04:29:51;;;;;;;2.72;2.17;;;5.30;74.20;;;4.43;61.00;95605.78;5033673;28;20207;-79
2021/10/14 04:32:18;;;;;;;2.35;2.05;;;5.30;74.30;;;4.42;61.33;95609.34;5034354;28;20622;-79
2021/10/14 04:34:46;;;;;;;3.00;2.30;;;5.30;74.30;;;4.45;60.86;95614.25;5033215;28;20192;-78
2021/10/14 04:37:13;;;;;;;2.83;2.20;;;5.30;74.30;;;4.47;61.32;95612.34;5033229;28;20224;-79
2021/10/14 04:39:40;;;;;;;2.30;2.10;;;5.30;74.40;;;4.46;60.89;95599.50;5034309;28;20222;-79
2021/10/14 04:42:08;;;;;;;2.55;2.22;;;5.30;74.40;;;4.51;60.70;95612.88;5050677;28;20208;-79
2021/10/14 04:44:35;;;;;;;2.28;2.08;;;5.30;74.40;;;4.52;61.01;95617.13;5065904;28;20258;-78
2021/10/14 04:47:05;;;;;;;2.95;2.30;;;5.30;74.40;;;4.55;60.80;95613.44;5033976;28;20757;-79
2021/10/14 04:49:33;;;;;;;2.40;2.10;;;5.30;74.50;;;4.58;61.04;95613.19;5050807;28;20713;-79
2021/10/14 04:52:01;;;;;;;2.10;1.90;;;5.30;74.60;;;4.61;61.15;95618.91;5031177;28;20224;-77
2021/10/14 04:54:28;;;;;;;3.28;2.08;;;5.30;74.60;;;4.65;60.93;95614.25;5049919;28;20261;-79
2021/10/14 04:56:56;;;;;;;2.03;1.85;;;5.40;74.70;;;4.68;60.83;95613.16;5050436;28;20220;-79
2021/10/14 04:59:23;;;;;;;2.17;1.92;;;5.40;74.70;;;4.73;60.90;95616.97;5033913;28;20202;-79
2021/10/14 05:01:50;;;;;;;2.85;2.47;;;5.40;74.70;;;4.75;60.91;95619.47;5049411;28;20235;-79
2021/10/14 05:04:18;;;;;;;2.58;2.25;;;5.40;74.60;;;4.78;61.05;95629.56;5050748;28;20188;-80
2021/10/14 05:06:45;;;;;;;4.13;2.40;;;5.50;74.70;;;4.78;60.79;95626.97;5033846;28;20596;-79
2021/10/14 05:09:13;;;;;;;2.92;2.50;;;5.50;74.50;;;4.73;60.75;95616.97;5017653;28;20192;-79
2021/10/14 05:11:40;;;;;;;3.70;2.53;;;5.50;74.50;;;4.84;60.81;95630.81;5030002;28;20618;-79
2021/10/14 05:14:07;;;;;;;3.38;2.40;;;5.50;74.50;;;4.79;61.01;95618.22;5014527;28;20272;-79
2021/10/14 05:16:34;;;;;;;3.15;2.40;;;5.50;74.50;;;4.83;60.81;95635.16;5030462;28;20220;-79
2021/10/14 05:19:03;;;;;;;2.95;2.42;;;5.60;74.50;;;4.85;60.77;95627.25;5033417;28;20216;-79
2021/10/14 05:21:31;;;;;;;2.95;2.17;;;5.60;74.50;;;4.87;61.02;95628.75;5032408;28;20274;-78
2021/10/14 05:24:02;;;;;;;2.20;2.00;;;5.60;74.50;;;4.89;60.87;95619.00;5056249;28;20189;-79
2021/10/14 05:26:31;;;;;;;3.50;2.33;;;5.60;74.50;;;4.91;60.75;95619.69;5037722;28;20251;-79
2021/10/14 05:28:59;;;;;;;3.00;2.35;;;5.60;74.60;;;4.94;61.01;95622.03;5053339;28;20575;-79
2021/10/14 05:31:27;;;;;;;2.55;2.10;;;5.60;74.50;;;4.96;61.08;95616.69;5031624;28;20315;-79
2021/10/14 05:33:55;;;;;;;3.17;2.40;;;5.70;74.60;;;5.01;60.96;95627.47;5053113;28;20188;-79
2021/10/14 05:36:23;;;;;;;2.50;2.15;;;5.70;74.70;;;5.04;60.69;95635.03;5087085;28;20204;-79
2021/10/14 05:38:50;;;;;;;2.30;2.00;;;5.70;74.70;;;5.09;60.66;95635.41;5066973;28;20203;-79
2021/10/14 05:41:18;;;;;;;2.97;2.47;;;5.70;74.70;;;5.14;60.96;95629.78;5050205;28;20565;-79
2021/10/14 05:43:45;;;;;;;2.25;2.05;;;5.80;74.70;;;5.19;60.78;95631.94;5037189;28;20208;-79
2021/10/14 05:46:12;;;;;;;3.28;2.22;;;5.80;74.80;;;5.24;60.77;95632.38;5036951;28;20231;-79
2021/10/14 05:48:40;;;;;;;2.55;2.13;;;5.90;74.80;;;5.25;60.80;95629.63;5053305;28;20200;-79
2021/10/14 05:51:07;;;;;;;3.13;1.92;;;5.90;74.80;;;5.31;60.72;95628.25;5053180;28;20215;-79
2021/10/14 05:53:34;;;;;;;2.80;2.10;;;5.90;74.80;;;5.39;60.53;95636.16;5036929;28;20196;-79
2021/10/14 05:56:01;;;;;;;2.45;2.17;;;6.00;74.80;;;5.43;60.53;95629.72;5036574;28;20247;-79
2021/10/14 05:58:28;;;;;;;2.63;2.40;;;6.00;74.70;;;5.44;60.61;95622.72;5049122;28;20203;-79
2021/10/14 06:00:56;;;;;;;3.55;2.13;;;6.00;74.70;;;5.52;60.79;95635.03;5041373;28;20212;-79
2021/10/14 06:03:24;;;;;;;3.80;2.90;;;6.10;74.70;;;5.56;60.52;95631.19;5036987;28;20208;-79
2021/10/14 06:05:51;;;;;;;3.55;2.83;;;6.10;74.70;;;5.59;60.52;95636.06;5036692;28;20686;-79
2021/10/14 06:08:19;;;;;;;3.13;2.53;;;6.20;74.70;;;5.64;60.83;95641.69;5033099;28;20228;-79
2021/10/14 06:10:46;;;;;;;3.95;2.83;;;6.20;74.70;;;5.69;61.08;95643.84;5035934;28;20860;-79
2021/10/14 06:13:13;;;;;;;3.35;2.40;;;6.30;74.70;;;5.73;60.52;95640.81;5053190;28;20200;-79
2021/10/14 06:15:41;;;;;;;3.47;2.60;;;6.30;74.70;;;5.80;60.96;95642.84;5036457;28;20200;-79
2021/10/14 06:18:09;;;;;;;3.42;2.70;;;6.40;74.80;;;5.84;60.65;95642.44;5049504;28;20300;-79
2021/10/14 06:20:36;;;;;;;3.13;2.47;;;6.40;74.70;;;5.85;60.44;95636.25;5039397;28;20242;-79
2021/10/14 06:23:05;;;;;;;3.47;2.75;;;6.40;74.70;;;5.90;60.41;95635.81;5028584;28;20197;-79
2021/10/14 06:25:34;;;;;;;4.78;2.80;;;6.50;74.70;;;6.00;60.63;95643.63;5036074;28;20216;-79
2021/10/14 06:28:02;;;;;;;3.38;2.35;;;6.60;74.70;;;6.03;60.56;95646.75;5036223;28;20319;-79
2021/10/14 06:30:31;;;;;;;2.95;2.30;;;6.60;74.60;;;6.02;60.20;95639.91;5051958;28;20255;-79
2021/10/14 06:33:00;;;;;;;2.75;2.20;;;6.60;74.60;;;6.12;60.31;95645.06;5019877;28;20620;-79
2021/10/14 06:35:27;;;;;;;3.03;2.38;;;6.70;74.50;;;6.16;60.27;95648.19;5052618;28;20697;-79
2021/10/14 06:37:55;;;;;;;2.63;2.38;;;6.70;74.60;;;6.23;60.48;95646.66;5035289;28;20234;-79
2021/10/14 06:40:22;;;;;;;2.35;2.15;;;6.80;74.70;;;6.30;60.32;95652.06;5036201;28;20192;-80
2021/10/14 06:42:52;;;;;;;3.03;1.83;;;6.80;74.70;;;6.40;60.54;95652.84;5048275;28;20228;-79
2021/10/14 06:45:20;;;;;;;2.83;2.20;;;6.90;74.80;;;6.54;60.51;95659.31;5065493;28;20197;-79
2021/10/14 06:47:47;;;;;;;2.20;2.00;;;7.00;75.00;;;6.66;60.29;95658.13;5049178;28;20217;-79
2021/10/14 06:50:14;;;;;;;2.45;2.00;;;7.10;75.10;;;6.84;60.56;95665.16;5034508;28;20220;-79
2021/10/14 06:52:42;;;;;;;7.38;4.57;;;7.20;75.20;;;6.94;60.15;95658.06;5035733;28;20224;-78
2021/10/14 06:55:09;;;;;;;2.88;2.50;;;7.30;75.20;;;7.11;60.32;95653.78;5052155;28;20191;-79
2021/10/14 06:57:37;;;;;;;2.33;2.13;;;7.40;75.30;;;7.32;60.48;95663.91;5052002;28;20303;-79
2021/10/14 07:00:07;;;;;;;2.13;1.83;;;7.50;75.40;;;7.52;60.50;95671.53;5019028;28;20602;-79
2021/10/14 07:02:34;;;;;;;4.78;2.00;;;7.60;75.40;;;7.69;59.89;95660.19;5019291;28;20316;-79
2021/10/14 07:05:03;;;;;;;3.75;2.45;;;7.80;75.50;;;7.88;60.07;95665.34;5051935;28;20299;-80
2021/10/14 07:07:30;;;;;;;2.10;1.95;;;8.00;75.40;;;8.01;59.70;95658.69;5034938;28;20227;-79
2021/10/14 07:09:58;;;;;;;4.28;2.33;;;8.10;75.20;;;8.14;59.77;95665.28;5053133;28;20196;-79
2021/10/14 07:12:28;;;;;;;2.75;2.42;;;8.30;75.20;;;8.27;59.17;95668.25;5050958;28;20639;-79
2021/10/14 07:14:56;;;;;;;4.10;2.20;;;8.40;74.80;;;8.37;59.26;95668.13;5047966;28;20292;-79
2021/10/14 07:17:25;;;;;;;3.70;2.70;;;8.50;74.80;;;8.44;58.81;95666.53;5040083;28;20327;-79
2021/10/14 07:19:53;;;;;;;5.10;2.60;;;8.70;75.00;;;8.45;58.79;95668.16;5064327;28;20209;-79
2021/10/14 07:22:21;;;;;;;3.53;2.38;;;8.80;74.70;;;8.53;58.90;95672.59;5021313;28;20710;-79
2021/10/14 07:24:48;;;;;;;5.80;2.65;;;8.80;74.40;;;8.58;59.28;95679.97;5055415;28;20200;-79
2021/10/14 07:27:15;;;;;;;4.28;2.67;;;8.90;74.40;;;8.58;58.63;95672.97;5048051;28;20282;-79
2021/10/14 07:29:43;;;;;;;5.70;2.55;;;9.00;74.30;;;8.60;58.57;95672.81;5047798;28;20204;-79
2021/10/14 07:32:11;;;;;;;4.78;2.92;;;9.00;74.00;;;8.63;58.82;95681.16;5033923;28;20300;-79
2021/10/14 07:34:39;;;;;;;3.80;2.83;;;9.10;74.00;;;8.64;58.87;95682.78;5051607;28;20208;-79
2021/10/14 07:37:07;;;;;;;3.50;2.72;;;9.10;74.10;;;8.66;58.97;95680.00;5034500;28;20705;-79
2021/10/14 07:39:35;;;;;;;3.70;2.92;;;9.20;74.20;;;8.67;58.90;95681.66;5034128;28;20204;-79
2021/10/14 07:42:03;;;;;;;4.82;3.30;;;9.10;74.00;;;8.65;59.14;95679.19;5050930;28;20626;-79
2021/10/14 07:44:31;;;;;;;4.57;3.13;;;9.20;74.00;;;8.66;58.67;95677.38;5035655;28;20257;-79
2021/10/14 07:46:58;;;;;;;5.57;3.10;;;9.20;74.00;;;8.64;59.21;95674.94;5032819;28;20286;-79
2021/10/14 07:49:26;;;;;;;4.75;2.70;;;9.20;74.10;;;8.65;59.15;95678.38;5051074;28;20250;-80
2021/10/14 07:51:54;;;;;;;3.53;3.13;;;9.20;74.10;;;8.62;59.30;95678.69;5051062;28;20222;-78
2021/10/14 07:54:22;;;;;;;4.95;2.75;;;9.20;74.10;;;8.63;59.31;95685.56;5051301;28;20673;-79
2021/10/14 07:56:49;;;;;;;4.90;2.83;;;9.20;74.30;;;8.64;59.40;95682.78;5052106;28;20246;-79
2021/10/14 07:59:17;;;;;;;2.80;2.40;;;9.20;74.40;;;8.68;59.56;95679.84;5035931;28;20200;-78
2021/10/14 08:01:44;;;;;;;3.45;2.33;;;9.20;74.40;;;8.70;59.76;95681.31;5031237;28;20221;-79
2021/10/14 08:04:12;;;;;;;5.13;2.35;;;9.20;74.60;;;8.76;59.60;95679.84;5019330;28;20220;-80
2021/10/14 08:06:40;;;;;;;3.35;2.55;;;9.20;74.70;;;8.82;59.69;95676.59;5047271;28;20468;-80
2021/10/14 08:09:07;;;;;;;3.58;2.15;;;9.30;74.90;;;8.88;59.73;95685.59;5031269;28;20686;-80
2021/10/14 08:11:35;;;;;;;4.43;2.40;;;9.30;74.90;;;8.90;59.58;95679.22;5062117;28;20318;-79
2021/10/14 08:14:02;;;;;;;2.72;2.20;;;9.40;75.00;;;8.94;59.58;95680.53;5083032;28;20267;-80
2021/10/14 08:16:30;;;;;;;3.38;2.20;;;9.40;75.00;;;8.99;59.62;95684.47;5017514;28;20230;-80
2021/10/14 08:18:57;;;;;;;4.25;2.50;;;9.40;75.00;;;8.99;59.55;95682.66;5081750;28;20191;-80
2021/10/14 08:21:24;;;;;;;3.55;2.60;;;9.40;75.00;;;9.01;59.56;95679.88;5050065;28;20302;-79
2021/10/14 08:23:52;;;;;;;2.65;2.17;;;9.50;74.90;;;8.99;59.84;95676.63;5034519;28;20676;-80
2021/10/14 08:26:19;;;;;;;3.58;2.58;;;9.50;74.80;;;8.97;60.07;95679.38;5017874;28;20230;-80
2021/10/14 08:28:46;;;;;;;4.90;2.78;;;9.50;74.80;;;8.96;60.12;95675.97;5034211;28;20203;-81
2021/10/14 08:31:14;;;;;;;4.00;2.50;;;9.50;74.80;;;8.94;60.09;95679.72;5032843;28;20728;-80
2021/10/14 08:33:42;;;;;;;3.92;2.58;;;9.50;74.80;;;8.90;59.96;95665.31;5050547;28;20673;-80
2021/10/14 08:36:10;;;;;;;3.28;2.42;;;9.60;75.00;;;8.96;59.96;95667.31;5050727;28;20218;-80
2021/10/14 08:38:38;;;;;;;5.78;3.08;;;9.50;75.00;;;9.00;59.91;95673.03;5034040;28;20255;-80
2021/10/14 08:41:05;;;;;;;4.50;3.03;;;9.50;75.00;;;9.02;60.28;95661.41;5034118;28;20215;-79
2021/10/14 08:43:34;;;;;;;4.28;2.90;;;9.50;75.10;;;9.11;60.47;95670.06;5033910;28;20247;-80
2021/10/14 08:46:03;;;;;;;4.65;3.30;;;9.60;75.50;;;9.23;60.20;95668.75;5034199;28;20270;-80
2021/10/14 08:48:30;;;;;;;5.18;3.22;;;9.60;75.50;;;9.31;60.13;95664.50;5049801;28;20221;-79
2021/10/14 08:50:58;;;;;;;7.32;3.55;;;9.70;75.60;;;9.38;60.26;95666.28;5052383;28;20761;-79
2021/10/14 08:53:25;;;;;;;4.20;3.30;;;9.70;75.60;;;9.45;60.21;95662.03;5050963;28;20192;-80
2021/10/14 08:55:52;;;;;;;6.68;3.42;;;9.80;75.60;;;9.53;60.22;95655.13;5034385;28;20255;-80
2021/10/14 08:58:21;;;;;;;4.53;3.08;;;9.80;75.60;;;9.58;60.57;95660.69;5036721;28;20307;-79
2021/10/14 09:01:13;;;;;;;8.57;3.45;;;9.90;75.70;;;9.70;60.34;95655.94;5027089;28;20193;-79
2021/10/14 09:03:48;;;;;;;5.30;3.72;;;10.10;74.60;;;9.80;60.34;95655.72;5037977;28;20204;-79
2021/10/14 09:06:17;;;;;;;6.97;3.55;;;10.10;74.60;;;9.94;60.33;95663.69;5037151;28;20231;-80
2021/10/14 09:08:49;;;;;;;9.65;3.53;;;10.20;74.70;;;10.03;60.08;95661.91;5053679;28;20670;-79
2021/10/14 09:11:24;;;;;;;5.95;3.60;;;10.20;74.70;;;10.15;60.16;95672.00;5021191;28;20219;-80
2021/10/14 09:13:55;;;;;;;4.45;3.30;;;10.40;74.90;;;10.20;59.87;95665.25;5020857;28;20301;-79
2021/10/14 09:16:24;;;;;;;5.53;3.50;;;10.40;74.50;;;10.23;59.92;95661.47;5037508;28;20216;-80
2021/10/14 09:18:52;;;;;;;4.57;2.95;;;10.50;75.30;;;10.30;59.98;95669.47;5071107;28;20557;-80
2021/10/14 09:21:28;;;;;;;5.20;3.50;;;10.50;74.40;;;10.35;59.83;95662.72;5034476;28;20768;-79
2021/10/14 09:24:00;;;;;;;4.38;3.47;;;10.60;74.30;;;10.38;59.79;95667.66;5037693;28;20204;-80
2021/10/14 09:26:30;;;;;;;4.43;3.30;;;10.70;74.30;;;10.43;59.70;95668.97;5053461;28;20204;-80
2021/10/14 09:29:12;;;;;;;5.63;3.17;;;10.70;74.20;;;10.46;59.87;95665.97;5001508;28;20250;-79
2021/10/14 09:32:02;;;;;;;4.10;3.03;;;10.80;74.30;;;10.51;59.83;95661.84;5026695;28;20220;-80
2021/10/14 09:34:37;;;;;;;3.70;3.30;;;10.80;74.20;;;10.59;59.91;95663.59;5030470;28;20201;-79
2021/10/14 09:37:17;;;;;;;3.85;3.40;;;10.90;74.40;;;10.69;59.97;95656.34;5048693;28;20281;-79
2021/10/14 09:40:14;;;;;;;4.40;3.47;;;11.00;74.30;;;10.81;60.14;95654.13;5069694;28;20203;-80
2021/10/14 09:42:55;;;;;;;5.05;2.95;;;11.10;74.60;;;10.96;60.17;95662.06;5037043;28;20269;-79
2021/10/14 09:45:52;;;;;;;4.50;3.22;;;11.20;74.60;;;11.02;59.80;95642.16;5017997;28;20189;-80
2021/10/14 09:48:19;;;;;;;3.80;2.92;;;11.20;74.60;;;11.13;59.95;95648.78;5051924;28;20594;-80
2021/10/14 09:50:47;;;;;;;5.28;2.88;;;11.30;74.60;;;11.29;60.01;95653.09;5032153;28;20708;-80
2021/10/14 09:53:16;;;;;;;3.58;2.88;;;11.50;75.00;;;11.45;59.89;95657.38;5028379;28;20612;-80
2021/10/14 09:55:45;;;;;;;3.53;2.88;;;11.50;75.00;;;11.59;59.96;95655.78;5035362;28;20301;-79
2021/10/14 09:58:13;;;;;;;4.55;3.40;;;11.70;75.00;;;11.61;59.50;95646.72;5018684;28;20206;-79
2021/10/14 10:00:43;;;;;;;2.80;2.60;;;11.80;74.60;;;11.64;59.37;95648.16;5038059;28;20183;-79
2021/10/14 10:03:16;;;;;;;3.30;3.00;;;11.80;74.30;;;11.65;59.21;95652.44;5042799;28;20216;-80
2021/10/14 10:05:49;;;;;;;4.07;2.88;;;11.90;74.20;;;11.61;59.27;95651.97;5035074;28;20203;-81
2021/10/14 10:08:34;;;;;;;4.35;2.92;;;11.90;74.00;;;11.53;58.98;95652.06;5034401;28;20716;-81
2021/10/14 10:11:10;;;;;;;4.30;3.20;;;12.00;73.70;;;11.40;58.96;95641.34;5047097;28;20219;-81
2021/10/14 10:13:44;;;;;;;5.45;2.75;;;12.00;73.40;;;11.35;59.55;95647.13;5051400;28;20191;-80
2021/10/14 10:16:14;;;;;;;2.78;2.50;;;11.90;73.60;;;11.38;59.50;95644.97;5051476;28;20223;-81
2021/10/14 10:18:42;;;;;;;3.92;3.20;;;11.90;73.90;;;11.47;60.14;95643.06;5035272;28;20611;-80
2021/10/14 10:21:29;;;;;;;3.30;3.00;;;11.80;74.00;;;11.51;59.43;95649.63;5036191;28;20636;-80
2021/10/14 10:23:59;;;;;;;3.72;3.00;;;11.90;74.00;;;11.53;59.42;95642.38;5053347;28;20249;-79
2021/10/14 10:26:35;;;;;;;4.03;3.20;;;11.90;74.10;;;11.61;59.51;95656.41;5034692;28;20226;-80
2021/10/14 10:29:12;;;;;;;3.72;3.00;;;11.90;73.90;;;11.63;59.43;95643.91;5052044;28;20205;-81
2021/10/14 10:31:49;;;;;;;4.70;2.90;;;11.90;74.00;;;11.67;59.56;95637.31;5052250;28;20310;-81
2021/10/14 10:37:25;;;;;;;3.47;2.90;;;12.10;74.10;;;11.78;59.63;95630.75;5047211;28;20219;-81
2021/10/14 10:40:01;;;;;;;4.00;2.75;;;12.10;74.30;;;11.87;59.70;95621.81;5035924;28;20646;-81